Terminal Aerodrome Forecast
Issued by NWS

Home | Current Version | Previous Version | Text Only | Print | Product List | Glossary On
Versions: 1 2 3 4 5 6 7 8 9 10 11 12 13 14 15 16
000
FTUS44 KLZK 202335
TAFHOT
TAF
KHOT 202335Z 2100/2124 16008KT P6SM OVC025 WS020/19040KT
     FM210500 16008KT 6SM -DZ BR SCT008 OVC015 WS020/19040KT
     FM210800 17007KT 4SM -DZ BR BKN008 OVC015
     FM211400 18008G16KT P6SM VCSH BKN015 OVC050=

USA.gov is the U.S. government's official web portal to all federal, state and local government web resources and services.